Time;durP1;ratioP1;P1;durP2;ratioP2;P2;SDS_P1;SDS_P2;PMS_P1;PMS_P2;Temp;Humidity;BMP_temperature;BMP_pressure;BME280_temperature;BME280_humidity;BME280_pressure;Samples;Min_cycle;Max_cycle;Signal;HPM_P1;HPM_P2
2023/12/24 00:01:04;;;;;;;0.80;0.80;;;;;;;7.70;79.98;95350.50;4976428;28;20188;-79
2023/12/24 00:03:30;;;;;;;1.17;0.90;;;;;;;7.67;79.79;95338.63;5011341;28;20184;-79
2023/12/24 00:05:55;;;;;;;1.00;0.97;;;;;;;7.56;80.04;95346.50;4981701;28;20270;-80
2023/12/24 00:08:20;;;;;;;2.80;0.90;;;;;;;7.48;80.83;95344.59;4983637;28;20275;-79
2023/12/24 00:10:46;;;;;;;1.00;0.90;;;;;;;7.58;80.64;95357.53;4979475;28;20196;-79
2023/12/24 00:13:11;;;;;;;0.60;0.60;;;;;;;7.72;79.94;95354.56;4994908;28;20195;-80
2023/12/24 00:15:36;;;;;;;1.20;1.10;;;;;;;7.67;80.56;95354.13;5005313;28;20247;-79
2023/12/24 00:18:02;;;;;;;1.20;0.80;;;;;;;7.78;80.20;95363.56;5000822;28;20195;-79
2023/12/24 00:20:27;;;;;;;1.33;0.70;;;;;;;7.72;80.49;95339.06;4997226;28;20654;-78
2023/12/24 00:23:05;;;;;;;0.87;0.80;;;;;;;7.52;80.91;95351.16;4980312;28;20314;-79
2023/12/24 00:25:31;;;;;;;0.97;0.70;;;;;;;7.57;80.33;95350.72;4994385;28;20215;-79
2023/12/24 00:27:58;;;;;;;2.00;0.83;;;;;;;7.50;80.30;95354.78;4982633;28;20195;-79
2023/12/24 00:30:26;;;;;;;1.40;0.70;;;;;;;7.77;79.94;95360.13;4997221;28;20222;-79
2023/12/24 00:32:55;;;;;;;2.33;0.80;;;;;;;7.55;80.10;95345.69;5001326;28;20658;-79
2023/12/24 00:35:21;;;;;;;0.80;0.80;;;;;;;7.59;80.07;95349.63;4995498;28;20238;-80
2023/12/24 00:37:47;;;;;;;1.00;0.80;;;;;;;7.73;79.55;95357.97;4976044;28;20193;-79
2023/12/24 00:40:12;;;;;;;1.30;1.20;;;;;;;7.66;79.12;95376.59;4980918;28;20210;-79
2023/12/24 00:42:39;;;;;;;0.80;0.80;;;;;;;7.55;79.11;95362.97;5000098;28;20604;-79
2023/12/24 00:45:05;;;;;;;2.10;1.20;;;;;;;7.79;78.77;95366.00;4979736;28;20199;-79
2023/12/24 00:47:30;;;;;;;0.83;0.83;;;;;;;7.72;78.80;95356.34;4993477;28;20310;-79
2023/12/24 00:49:55;;;;;;;1.10;1.10;;;;;;;7.67;78.82;95362.72;4981236;28;20230;-79
2023/12/24 00:52:21;;;;;;;0.97;0.87;;;;;;;7.46;79.74;95362.00;4999707;28;20192;-79
2023/12/24 00:54:47;;;;;;;1.70;0.80;;;;;;;7.58;79.12;95352.34;4978432;28;20191;-79
2023/12/24 00:57:13;;;;;;;1.00;0.90;;;;;;;7.64;78.88;95351.84;4993039;28;20207;-79
2023/12/24 00:59:38;;;;;;;1.27;1.17;;;;;;;7.66;78.45;95361.06;4994476;28;20223;-79
2023/12/24 01:02:03;;;;;;;1.47;1.00;;;;;;;7.86;77.37;95361.94;4994694;28;20192;-78
2023/12/24 01:04:29;;;;;;;4.83;1.30;;;;;;;7.68;77.70;95353.19;4993838;28;20238;-79
2023/12/24 01:06:54;;;;;;;2.47;1.00;;;;;;;7.63;77.84;95351.00;5000329;28;20216;-79
2023/12/24 01:09:19;;;;;;;0.73;0.73;;;;;;;7.78;76.95;95351.44;4985928;28;20279;-79
2023/12/24 01:11:45;;;;;;;1.00;0.90;;;;;;;7.61;77.25;95347.75;4979709;28;20215;-79
2023/12/24 01:14:10;;;;;;;3.53;1.10;;;;;;;7.35;78.32;95337.09;4996758;28;20187;-79
2023/12/24 01:16:39;;;;;;;0.93;0.87;;;;;;;7.78;77.06;95353.22;4994190;28;20206;-79
2023/12/24 01:19:05;;;;;;;1.10;0.83;;;;;;;7.65;77.71;95332.78;4999913;28;20187;-79
2023/12/24 01:21:30;;;;;;;1.03;0.93;;;;;;;7.81;77.12;95348.59;4979602;28;20195;-79
2023/12/24 01:23:55;;;;;;;1.90;1.07;;;;;;;7.75;76.96;95356.88;5000582;28;20184;-79
2023/12/24 01:26:21;;;;;;;0.90;0.90;;;;;;;7.65;77.45;95343.13;4977631;28;20760;-79
2023/12/24 01:28:46;;;;;;;1.70;0.93;;;;;;;7.45;77.50;95354.38;4980770;28;20558;-79
2023/12/24 01:31:11;;;;;;;1.43;0.80;;;;;;;7.49;78.20;95364.31;4994365;28;20786;-79
2023/12/24 01:33:37;;;;;;;1.30;1.00;;;;;;;7.59;78.21;95365.13;4983077;28;20658;-79
2023/12/24 01:36:02;;;;;;;0.90;0.90;;;;;;;7.25;78.91;95348.38;4997786;28;20697;-79
2023/12/24 01:38:27;;;;;;;2.03;0.90;;;;;;;7.42;78.41;95359.81;4994575;28;20196;-79
2023/12/24 01:40:53;;;;;;;1.37;0.90;;;;;;;7.44;78.46;95361.31;4978100;28;20279;-79
2023/12/24 01:43:18;;;;;;;2.20;1.20;;;;;;;7.19;78.18;95352.28;4998396;28;20198;-79
2023/12/24 01:45:44;;;;;;;1.53;0.90;;;;;;;7.42;77.46;95358.06;4996152;28;20231;-79
2023/12/24 01:48:09;;;;;;;0.77;0.77;;;;;;;7.42;77.22;95355.47;4978550;28;20191;-79
2023/12/24 01:50:35;;;;;;;0.80;0.70;;;;;;;7.32;77.04;95339.94;5009968;28;20256;-79
2023/12/24 01:53:02;;;;;;;0.93;0.83;;;;;;;7.25;76.99;95340.63;4997398;28;20716;-79
2023/12/24 01:55:27;;;;;;;1.27;0.87;;;;;;;7.25;76.64;95362.09;4994831;28;20211;-79
2023/12/24 01:57:52;;;;;;;2.40;0.63;;;;;;;7.49;76.50;95328.13;4991023;28;20296;-79
2023/12/24 02:00:19;;;;;;;0.90;0.83;;;;;;;7.47;76.84;95335.22;4992792;28;20282;-80
2023/12/24 02:02:45;;;;;;;0.60;0.60;;;;;;;7.44;76.76;95345.00;4994016;28;20195;-79
2023/12/24 02:05:10;;;;;;;4.70;0.90;;;;;;;7.35;76.98;95346.63;4995087;28;20212;-79
2023/12/24 02:07:37;;;;;;;1.27;0.80;;;;;;;7.48;76.82;95330.88;4979818;28;20242;-79
2023/12/24 02:10:03;;;;;;;1.90;0.70;;;;;;;7.55;76.50;95339.72;4997363;28;20687;-79
2023/12/24 02:12:28;;;;;;;0.93;0.67;;;;;;;7.59;76.46;95333.31;4997956;28;20180;-79
2023/12/24 02:14:53;;;;;;;1.33;1.10;;;;;;;7.41;76.66;95345.25;5000235;28;20188;-79
2023/12/24 02:17:20;;;;;;;1.10;0.60;;;;;;;7.58;76.48;95348.00;5000310;28;20216;-79
2023/12/24 02:19:45;;;;;;;3.70;1.00;;;;;;;7.43;76.29;95364.88;4983458;28;20192;-79
2023/12/24 02:22:10;;;;;;;2.03;0.90;;;;;;;7.71;76.15;95377.97;4999614;28;20188;-79
2023/12/24 02:24:36;;;;;;;1.97;0.87;;;;;;;7.76;75.99;95370.59;4980861;28;20255;-79
2023/12/24 02:27:13;;;;;;;1.13;0.80;;;;;;;7.60;77.03;95376.31;4979804;28;20250;-79
2023/12/24 02:29:42;;;;;;;2.27;1.00;;;;;;;7.60;78.20;95382.31;4976606;28;20183;-78
2023/12/24 02:32:11;;;;;;;3.60;0.80;;;;;;;7.60;79.02;95382.31;4980082;28;20249;-79
2023/12/24 02:34:37;;;;;;;1.30;0.77;;;;;;;7.52;79.11;95376.97;4997227;28;20183;-79
2023/12/24 02:37:04;;;;;;;2.10;1.00;;;;;;;7.49;80.11;95364.31;4995052;28;20211;-79
2023/12/24 02:39:29;;;;;;;1.33;1.10;;;;;;;7.40;80.61;95365.09;4976955;28;20203;-79
2023/12/24 02:41:54;;;;;;;1.87;0.77;;;;;;;7.38;81.43;95374.75;4978477;28;20194;-79
2023/12/24 02:44:20;;;;;;;2.77;1.13;;;;;;;7.45;81.44;95364.72;4998091;28;20226;-79
2023/12/24 02:46:45;;;;;;;2.47;0.80;;;;;;;7.38;82.02;95372.19;4977708;28;20215;-79
2023/12/24 02:49:10;;;;;;;2.20;1.07;;;;;;;7.44;82.88;95373.44;4980719;28;20218;-79
2023/12/24 02:51:36;;;;;;;1.60;0.93;;;;;;;7.08;84.46;95378.22;4993493;28;20218;-79
2023/12/24 02:54:01;;;;;;;0.80;0.80;;;;;;;7.27;84.67;95375.69;4997580;28;21703;-79
2023/12/24 02:56:26;;;;;;;1.00;0.80;;;;;;;7.23;85.18;95386.41;4993684;28;20235;-79
2023/12/24 02:58:52;;;;;;;0.80;0.80;;;;;;;7.33;84.23;95385.50;4992790;28;20211;-79
2023/12/24 03:01:17;;;;;;;1.27;0.90;;;;;;;7.14;85.69;95379.44;4993742;28;20192;-79
2023/12/24 03:03:43;;;;;;;0.80;0.77;;;;;;;7.15;86.46;95376.72;4988921;28;20188;-79
2023/12/24 03:06:08;;;;;;;1.60;1.10;;;;;;;7.29;85.75;95355.72;4978148;28;20239;-79
2023/12/24 03:08:33;;;;;;;0.87;0.60;;;;;;;7.26;85.63;95358.56;4982533;28;20198;-79
2023/12/24 03:11:01;;;;;;;1.43;1.00;;;;;;;7.25;85.91;95341.44;4981735;28;20198;-78
2023/12/24 03:13:26;;;;;;;1.43;1.33;;;;;;;7.07;nan;95346.41;4994435;28;20556;-79
2023/12/24 03:15:52;;;;;;;1.07;0.90;;;;;;;7.16;85.87;95362.06;4996842;28;20210;-79
2023/12/24 03:18:17;;;;;;;1.13;1.03;;;;;;;7.01;86.35;95365.00;4982122;28;20188;-79
2023/12/24 03:20:43;;;;;;;0.90;0.90;;;;;;;7.10;86.40;95364.22;4997122;28;20190;-79
2023/12/24 03:23:08;;;;;;;1.57;1.00;;;;;;;7.16;85.68;95351.75;4993451;28;20199;-78
2023/12/24 03:25:33;;;;;;;1.20;1.10;;;;;;;7.07;85.33;95355.94;4994986;28;20278;-79
2023/12/24 03:27:59;;;;;;;2.03;1.10;;;;;;;7.29;84.54;95347.16;4978470;28;20188;-79
2023/12/24 03:30:24;;;;;;;1.10;1.00;;;;;;;7.38;83.41;95342.00;4977943;28;20184;-79
2023/12/24 03:32:49;;;;;;;3.03;1.30;;;;;;;7.14;84.33;95336.34;4997600;28;20694;-79
2023/12/24 03:35:15;;;;;;;1.30;1.17;;;;;;;7.20;83.87;95322.09;5010698;28;20318;-79
2023/12/24 03:37:40;;;;;;;1.37;0.90;;;;;;;7.24;83.09;95318.31;4993265;28;20207;-79
2023/12/24 03:40:06;;;;;;;1.20;1.03;;;;;;;7.24;82.59;95313.13;4994979;28;20685;-79
2023/12/24 03:42:31;;;;;;;1.30;1.20;;;;;;;7.13;82.54;95313.25;4997404;28;20658;-79
2023/12/24 03:44:57;;;;;;;1.07;1.00;;;;;;;7.07;82.80;95307.69;4980992;28;20211;-79
2023/12/24 03:47:22;;;;;;;1.40;1.30;;;;;;;7.32;81.11;95301.19;4993850;28;20756;-80
2023/12/24 03:49:47;;;;;;;1.60;1.50;;;;;;;7.19;81.29;95303.22;4996618;28;20199;-79
2023/12/24 03:52:13;;;;;;;1.40;1.30;;;;;;;7.11;81.74;95295.31;4983061;28;20221;-78
2023/12/24 03:54:38;;;;;;;1.27;1.17;;;;;;;7.29;80.91;95295.47;4998717;28;20184;-79
2023/12/24 03:57:04;;;;;;;1.20;1.10;;;;;;;7.20;81.10;95302.25;4993599;28;20610;-79
2023/12/24 03:59:30;;;;;;;1.17;1.07;;;;;;;7.03;81.39;95297.75;4979448;28;20185;-78
2023/12/24 04:01:55;;;;;;;1.30;1.20;;;;;;;7.17;81.36;95273.31;4995439;28;20187;-79
2023/12/24 04:04:21;;;;;;;1.30;1.07;;;;;;;7.18;81.46;95277.53;4995916;28;20180;-79
2023/12/24 04:06:46;;;;;;;1.10;1.00;;;;;;;7.41;80.67;95299.56;4995537;28;20212;-79
2023/12/24 04:09:12;;;;;;;2.37;0.90;;;;;;;7.27;81.43;95287.88;5003212;28;20187;-79
2023/12/24 04:11:37;;;;;;;1.37;0.93;;;;;;;6.97;83.32;95265.50;4998501;28;20184;-79
2023/12/24 04:14:02;;;;;;;1.17;1.07;;;;;;;7.27;83.16;95266.41;4982114;28;20718;-79
2023/12/24 04:16:28;;;;;;;2.07;1.27;;;;;;;7.13;84.00;95274.53;4979996;28;20290;-79
2023/12/24 04:18:53;;;;;;;1.00;1.00;;;;;;;7.13;84.73;95274.53;5017349;28;20184;-79
2023/12/24 04:21:18;;;;;;;1.10;1.00;;;;;;;7.03;85.82;95266.75;4997186;28;20198;-80
2023/12/24 04:23:44;;;;;;;1.67;1.10;;;;;;;6.89;86.41;95267.13;4983393;28;20187;-79
2023/12/24 04:26:09;;;;;;;1.37;1.27;;;;;;;6.94;86.76;95264.97;4998429;28;20736;-79
2023/12/24 04:28:35;;;;;;;1.13;1.00;;;;;;;6.98;87.36;95259.44;4995204;28;20890;-79
2023/12/24 04:31:00;;;;;;;1.30;1.20;;;;;;;6.66;89.15;95271.69;4998132;28;20195;-79
2023/12/24 04:33:26;;;;;;;1.77;1.07;;;;;;;6.98;87.75;95264.59;5002581;28;20275;-79
2023/12/24 04:35:51;;;;;;;1.03;0.90;;;;;;;6.82;89.00;95269.44;4998772;28;20227;-79
2023/12/24 04:38:17;;;;;;;1.57;0.90;;;;;;;6.69;89.60;95263.66;4979188;28;20191;-79
2023/12/24 04:40:42;;;;;;;1.03;0.90;;;;;;;6.67;89.86;95243.16;4997118;28;20188;-78
2023/12/24 04:43:07;;;;;;;1.10;1.00;;;;;;;6.71;90.02;95262.56;5000467;28;20270;-79
2023/12/24 04:45:33;;;;;;;1.57;1.07;;;;;;;6.74;89.45;95257.19;4998215;28;20206;-79
2023/12/24 04:47:59;;;;;;;0.67;0.67;;;;;;;6.90;88.72;95243.78;4995874;28;20266;-79
2023/12/24 04:50:25;;;;;;;1.23;1.03;;;;;;;6.94;88.52;95259.81;4978851;28;20192;-79
2023/12/24 04:52:50;;;;;;;0.60;0.60;;;;;;;6.76;88.89;95250.13;4997700;28;20195;-79
2023/12/24 04:55:15;;;;;;;0.90;0.57;;;;;;;6.82;88.82;95248.78;4998736;28;20677;-79
2023/12/24 04:57:41;;;;;;;0.73;0.73;;;;;;;6.93;88.06;95242.69;4978528;28;20596;-79
2023/12/24 05:00:06;;;;;;;1.00;0.73;;;;;;;6.89;88.13;95237.00;4993613;28;20274;-79
2023/12/24 05:02:33;;;;;;;0.70;0.70;;;;;;;7.01;87.42;95241.06;4995275;28;20216;-79
2023/12/24 05:04:59;;;;;;;0.40;0.40;;;;;;;6.75;87.79;95237.34;4995303;28;20335;-79
2023/12/24 05:07:24;;;;;;;0.53;0.50;;;;;;;6.86;87.30;95231.25;4999230;28;20203;-79
2023/12/24 05:09:50;;;;;;;2.50;2.30;;;;;;;6.93;86.99;95233.19;4982566;28;20282;-79
2023/12/24 05:12:16;;;;;;;0.83;0.80;;;;;;;6.95;86.56;95217.56;4985227;28;20257;-79
2023/12/24 05:14:41;;;;;;;0.87;0.70;;;;;;;6.93;87.07;95220.28;4995926;28;20180;-79
2023/12/24 05:17:06;;;;;;;1.27;1.17;;;;;;;6.88;86.73;95211.28;5001316;28;20632;-79
2023/12/24 05:19:32;;;;;;;0.60;0.40;;;;;;;7.05;86.20;95213.22;5000370;28;20629;-79
2023/12/24 05:21:57;;;;;;;0.70;0.70;;;;;;;7.13;85.82;95212.53;4981023;28;20195;-79
2023/12/24 05:24:22;;;;;;;0.40;0.40;;;;;;;7.08;85.84;95216.38;4999440;28;20191;-80
2023/12/24 05:26:48;;;;;;;0.30;0.30;;;;;;;7.17;85.34;95204.41;4981769;28;20219;-79
2023/12/24 05:29:13;;;;;;;0.63;0.43;;;;;;;7.10;85.79;95213.63;4998387;28;20196;-79
2023/12/24 05:31:39;;;;;;;0.70;0.40;;;;;;;7.21;85.03;95215.28;4996791;28;20192;-80
2023/12/24 05:34:05;;;;;;;0.47;0.47;;;;;;;7.15;85.42;95233.88;5003251;28;20284;-79
2023/12/24 05:36:32;;;;;;;1.70;0.50;;;;;;;7.26;84.41;95246.69;4996866;28;20674;-79
2023/12/24 05:38:58;;;;;;;0.30;0.30;;;;;;;7.34;83.97;95247.66;4981421;28;20207;-80
2023/12/24 05:41:23;;;;;;;0.50;0.50;;;;;;;7.37;83.50;95251.72;4996444;28;20198;-79
2023/12/24 05:43:49;;;;;;;0.60;0.60;;;;;;;7.37;83.53;95252.53;4993837;28;20195;-79
2023/12/24 05:46:14;;;;;;;0.93;0.60;;;;;;;7.51;82.96;95243.59;4999821;28;20211;-79
2023/12/24 05:48:40;;;;;;;0.93;0.50;;;;;;;7.36;83.67;95255.25;4995008;28;20198;-79
2023/12/24 05:51:06;;;;;;;0.40;0.40;;;;;;;7.61;83.05;95264.25;4999671;28;20187;-79
2023/12/24 05:53:31;;;;;;;0.83;0.50;;;;;;;7.77;82.14;95254.16;4996565;28;20195;-79
2023/12/24 05:55:56;;;;;;;0.40;0.40;;;;;;;7.75;82.04;95250.06;4996703;28;20231;-79
2023/12/24 05:58:22;;;;;;;0.53;0.50;;;;;;;7.53;82.40;95236.50;4993640;28;20650;-79
2023/12/24 06:00:47;;;;;;;0.50;0.50;;;;;;;7.67;82.19;95259.31;4995442;28;20191;-79
2023/12/24 06:03:13;;;;;;;0.70;0.70;;;;;;;7.47;82.28;95249.13;4993060;28;20355;-79
2023/12/24 06:05:38;;;;;;;0.60;0.60;;;;;;;7.47;81.68;95237.03;4992305;28;20227;-79
2023/12/24 06:08:04;;;;;;;0.50;0.50;;;;;;;7.53;81.72;95225.34;4984510;28;20197;-79
2023/12/24 06:10:29;;;;;;;0.40;0.40;;;;;;;7.70;81.03;95226.44;4978399;28;20688;-79
2023/12/24 06:12:55;;;;;;;0.80;0.80;;;;;;;7.53;81.28;95226.16;4997259;28;20220;-79
2023/12/24 06:15:20;;;;;;;0.50;0.50;;;;;;;7.68;81.01;95218.78;4978442;28;20271;-79
2023/12/24 06:17:45;;;;;;;0.40;0.40;;;;;;;7.75;80.41;95203.56;4997219;28;20199;-79
2023/12/24 06:20:11;;;;;;;1.60;0.60;;;;;;;7.69;81.35;95194.59;4998933;28;20187;-79
2023/12/24 06:22:36;;;;;;;0.50;0.50;;;;;;;7.81;80.91;95208.19;4995225;28;20191;-79
2023/12/24 06:25:02;;;;;;;0.60;0.60;;;;;;;7.75;80.85;95206.94;4994298;28;20223;-79
2023/12/24 06:27:28;;;;;;;2.63;0.60;;;;;;;7.83;80.98;95190.75;4993562;28;20217;-79
2023/12/24 06:29:53;;;;;;;0.63;0.50;;;;;;;7.84;80.91;95184.63;4981814;28;20246;-79
2023/12/24 06:32:19;;;;;;;1.20;0.60;;;;;;;7.73;81.19;95169.28;4998667;28;20187;-79
2023/12/24 06:34:44;;;;;;;0.60;0.50;;;;;;;7.74;80.80;95182.06;4998929;28;20179;-79
2023/12/24 06:37:09;;;;;;;0.40;0.40;;;;;;;7.66;81.36;95175.00;4996731;28;20214;-79
2023/12/24 06:39:35;;;;;;;0.50;0.50;;;;;;;7.41;82.57;95149.72;4995577;28;20204;-79
2023/12/24 06:42:00;;;;;;;0.40;0.40;;;;;;;7.91;80.63;95160.66;4997582;28;20662;-79
2023/12/24 06:44:26;;;;;;;0.37;0.37;;;;;;;7.86;80.41;95160.28;5000269;28;20199;-79
2023/12/24 06:46:51;;;;;;;0.50;0.50;;;;;;;7.92;80.43;95157.13;4996919;28;20212;-79
2023/12/24 06:49:18;;;;;;;1.27;0.40;;;;;;;7.94;80.52;95164.72;4979920;28;20218;-80
2023/12/24 06:51:43;;;;;;;0.60;0.60;;;;;;;7.88;80.69;95179.06;4980162;28;20188;-79
2023/12/24 06:54:09;;;;;;;0.50;0.50;;;;;;;7.75;80.91;95177.69;4997751;28;20191;-79
2023/12/24 06:56:34;;;;;;;0.83;0.60;;;;;;;7.90;80.83;95186.66;4975543;28;20204;-79
2023/12/24 06:58:59;;;;;;;0.93;0.80;;;;;;;8.05;80.42;95181.88;4983501;28;20184;-79
2023/12/24 07:01:25;;;;;;;0.70;0.50;;;;;;;7.80;81.05;95178.13;4993655;28;20238;-79
2023/12/24 07:03:50;;;;;;;0.33;0.33;;;;;;;7.74;81.84;95158.78;4994071;28;20535;-79
2023/12/24 07:06:16;;;;;;;0.43;0.43;;;;;;;8.02;80.68;95159.66;4993832;28;20617;-79
2023/12/24 07:08:41;;;;;;;0.83;0.60;;;;;;;7.71;82.06;95160.84;4993513;28;20255;-79
2023/12/24 07:11:08;;;;;;;0.93;0.40;;;;;;;7.90;81.52;95171.97;4981507;28;20202;-80
2023/12/24 07:13:33;;;;;;;0.50;0.50;;;;;;;8.30;79.67;95182.97;4977952;28;20199;-80
2023/12/24 07:15:59;;;;;;;0.50;0.50;;;;;;;8.06;81.09;95184.31;4996689;28;20303;-80
2023/12/24 07:18:25;;;;;;;0.67;0.50;;;;;;;8.19;80.67;95168.47;4991746;28;20229;-80
2023/12/24 07:20:50;;;;;;;0.50;0.50;;;;;;;8.14;80.76;95163.72;4993042;28;20660;-80
2023/12/24 07:23:16;;;;;;;0.97;0.70;;;;;;;8.15;80.98;95144.66;4975533;28;20188;-80
2023/12/24 07:25:41;;;;;;;0.83;0.73;;;;;;;8.18;81.18;95144.38;4983714;28;20771;-80
2023/12/24 07:28:06;;;;;;;0.40;0.40;;;;;;;7.99;82.19;95133.28;5000049;28;20577;-80
2023/12/24 07:30:32;;;;;;;0.40;0.40;;;;;;;8.05;82.16;95143.06;4997828;28;20570;-79
2023/12/24 07:32:57;;;;;;;0.53;0.50;;;;;;;8.13;82.30;95136.22;4982043;28;20191;-79
2023/12/24 07:35:22;;;;;;;0.40;0.40;;;;;;;8.34;81.24;95127.41;5000949;28;20183;-80
2023/12/24 07:37:48;;;;;;;0.60;0.40;;;;;;;8.06;82.59;95124.81;4998326;28;20234;-79
2023/12/24 07:40:13;;;;;;;1.93;0.57;;;;;;;8.21;82.15;95117.38;4996988;28;20566;-80
2023/12/24 07:42:39;;;;;;;0.80;0.57;;;;;;;8.02;82.93;95118.28;4998782;28;20258;-80
2023/12/24 07:45:04;;;;;;;0.40;0.40;;;;;;;8.15;82.83;95110.22;4986261;28;20258;-80
2023/12/24 07:47:31;;;;;;;0.37;0.37;;;;;;;8.14;82.65;95121.53;4996040;28;20657;-79
2023/12/24 07:49:56;;;;;;;0.90;0.70;;;;;;;8.07;83.17;95118.69;4996326;28;20192;-80
2023/12/24 07:52:21;;;;;;;1.67;0.60;;;;;;;8.37;81.93;95117.63;4980991;28;20238;-80
2023/12/24 07:54:47;;;;;;;0.40;0.40;;;;;;;8.36;82.01;95134.09;5000345;28;20226;-79
2023/12/24 07:57:12;;;;;;;5.23;2.50;;;;;;;8.21;82.49;95136.31;4998041;28;20204;-78
2023/12/24 07:59:37;;;;;;;3.00;1.30;;;;;;;8.14;82.89;95148.22;4985070;28;20191;-78
2023/12/24 08:02:03;;;;;;;0.40;0.40;;;;;;;8.12;83.40;95138.94;4997416;28;20557;-79
2023/12/24 08:04:31;;;;;;;1.70;1.60;;;;;;;8.29;82.45;95135.59;5000305;28;20235;-78
2023/12/24 08:06:56;;;;;;;0.90;0.53;;;;;;;8.17;83.16;95123.81;4998200;28;20602;-78
2023/12/24 08:09:21;;;;;;;0.30;0.30;;;;;;;8.12;83.59;95134.56;5004857;28;20192;-78
2023/12/24 08:11:47;;;;;;;0.50;0.50;;;;;;;8.37;82.96;95121.97;4982967;28;20210;-78
2023/12/24 08:14:12;;;;;;;0.30;0.30;;;;;;;8.33;83.63;95107.69;4999107;28;20210;-78
2023/12/24 08:16:38;;;;;;;0.40;0.30;;;;;;;8.44;82.78;95123.03;4999117;28;20234;-78
2023/12/24 08:19:03;;;;;;;0.30;0.30;;;;;;;8.55;82.52;95104.72;5002895;28;20257;-78
2023/12/24 08:21:29;;;;;;;0.30;0.30;;;;;;;8.25;83.97;95085.13;4999703;28;20215;-79
2023/12/24 08:23:54;;;;;;;0.40;0.40;;;;;;;8.33;84.27;95076.63;4992734;28;20207;-80
2023/12/24 08:26:19;;;;;;;0.40;0.40;;;;;;;8.61;83.06;95092.97;4994430;28;20685;-79
2023/12/24 08:28:45;;;;;;;0.63;0.40;;;;;;;8.78;82.93;95092.97;4996922;28;20191;-79
2023/12/24 08:31:10;;;;;;;0.37;0.30;;;;;;;8.65;83.53;95058.88;4996711;28;20246;-79
2023/12/24 08:33:36;;;;;;;2.07;1.20;;;;;;;8.97;82.20;95089.44;4994604;28;20270;-79
2023/12/24 08:36:02;;;;;;;0.40;0.40;;;;;;;8.76;83.22;95092.31;4982724;28;20203;-79
2023/12/24 08:38:27;;;;;;;0.30;0.30;;;;;;;8.81;83.67;95091.88;4997024;28;20195;-79
2023/12/24 08:40:53;;;;;;;0.50;0.30;;;;;;;8.98;83.73;95110.97;4996996;28;20195;-80
2023/12/24 08:43:18;;;;;;;0.40;0.40;;;;;;;8.87;84.71;95109.41;4992496;28;20218;-80
2023/12/24 08:45:43;;;;;;;0.40;0.40;;;;;;;9.17;85.01;95095.25;5011783;28;20228;-79
2023/12/24 08:48:09;;;;;;;0.87;0.37;;;;;;;8.82;86.00;95095.25;4991180;28;20335;-79
2023/12/24 08:50:34;;;;;;;0.60;0.40;;;;;;;9.05;85.54;95093.88;4991480;28;20180;-81
2023/12/24 08:53:00;;;;;;;0.20;0.20;;;;;;;8.99;86.04;95105.63;4994151;28;20267;-79
2023/12/24 08:55:25;;;;;;;1.07;0.23;;;;;;;9.11;85.76;95106.22;4993207;28;20560;-79
2023/12/24 08:57:51;;;;;;;0.37;0.37;;;;;;;9.44;84.47;95107.28;4979651;28;20196;-80
2023/12/24 09:00:16;;;;;;;0.40;0.40;;;;;;;9.27;84.94;95121.88;4994530;28;20250;-80
2023/12/24 09:02:42;;;;;;;0.47;0.33;;;;;;;9.43;84.39;95141.94;4996080;28;20188;-80
2023/12/24 09:05:07;;;;;;;0.30;0.30;;;;;;;9.20;86.11;95141.59;5006108;28;20207;-80
2023/12/24 09:07:33;;;;;;;0.30;0.30;;;;;;;9.48;84.66;95141.50;4995230;28;20208;-79
2023/12/24 09:09:59;;;;;;;0.40;0.40;;;;;;;9.30;85.21;95139.75;5002011;28;20183;-78
2023/12/24 09:12:25;;;;;;;0.40;0.40;;;;;;;9.60;84.26;95137.69;4992861;28;20216;-83
2023/12/24 09:14:51;;;;;;;1.50;0.40;;;;;;;9.68;84.24;95145.53;4994843;28;20584;-79
2023/12/24 09:17:16;;;;;;;0.20;0.20;;;;;;;9.68;83.63;95155.91;4993236;28;20223;-78
2023/12/24 09:19:42;;;;;;;1.70;0.40;;;;;;;9.73;83.58;95153.69;4995656;28;20215;-78
2023/12/24 09:22:07;;;;;;;0.80;0.80;;;;;;;9.62;83.66;95149.53;4996397;28;20650;-81
2023/12/24 09:24:33;;;;;;;0.50;0.50;;;;;;;9.87;82.89;95152.28;4994129;28;20194;-81
2023/12/24 09:26:58;;;;;;;0.50;0.50;;;;;;;9.80;82.94;95169.41;4975464;28;20254;-80
2023/12/24 09:29:23;;;;;;;0.87;0.87;;;;;;;9.72;83.58;95167.59;4992660;28;20210;-80
2023/12/24 09:31:49;;;;;;;0.40;0.40;;;;;;;9.58;84.33;95165.53;4978086;28;20278;-80
2023/12/24 09:34:14;;;;;;;1.33;0.40;;;;;;;9.66;84.44;95152.66;4980919;28;20218;-81
2023/12/24 09:36:39;;;;;;;0.50;0.30;;;;;;;9.72;84.37;95154.66;4978658;28;20296;-79
2023/12/24 09:39:05;;;;;;;0.40;0.40;;;;;;;9.43;85.85;95148.91;5009622;28;20683;-79
2023/12/24 09:41:30;;;;;;;0.67;0.50;;;;;;;9.60;84.97;95159.25;4975918;28;20616;-79
2023/12/24 09:43:56;;;;;;;0.40;0.40;;;;;;;9.33;86.02;95152.38;4978581;28;20188;-79
2023/12/24 09:46:21;;;;;;;0.27;0.27;;;;;;;9.65;85.24;95151.03;4994225;28;20211;-79
2023/12/24 09:48:46;;;;;;;0.27;0.27;;;;;;;9.75;85.20;95125.00;4986127;28;20183;-80
2023/12/24 09:51:12;;;;;;;0.30;0.30;;;;;;;9.57;85.56;95133.63;4996409;28;20863;-79
2023/12/24 09:53:40;;;;;;;0.40;0.30;;;;;;;9.32;86.86;95143.00;4978619;28;20278;-79
2023/12/24 09:56:05;;;;;;;0.20;0.20;;;;;;;9.58;85.90;95145.63;4997379;28;20199;-79
2023/12/24 09:58:31;;;;;;;0.40;0.40;;;;;;;9.53;85.79;95145.25;4976154;28;20188;-79
2023/12/24 10:00:57;;;;;;;0.40;0.40;;;;;;;9.65;86.18;95161.41;4993862;28;20207;-79
2023/12/24 10:03:22;;;;;;;0.20;0.20;;;;;;;9.56;84.55;95144.16;4993866;28;20677;-80
2023/12/24 10:06:04;;;;;;;1.37;0.27;;;;;;;9.60;84.83;95158.44;4978985;28;20239;-79
2023/12/24 10:08:30;;;;;;;0.50;0.50;;;;;;;9.45;84.55;95139.19;4978660;28;20192;-81
2023/12/24 10:10:56;;;;;;;0.30;0.30;;;;;;;9.82;83.19;95141.56;4982316;28;20192;-80
2023/12/24 10:13:22;;;;;;;0.50;0.50;;;;;;;9.67;83.08;95137.91;4984799;28;20266;-80
2023/12/24 10:16:05;;;;;;;0.20;0.20;;;;;;;9.85;81.68;95142.06;4998395;28;20689;-79
2023/12/24 10:18:30;;;;;;;0.80;0.50;;;;;;;9.84;81.42;95142.22;4999129;28;20658;-79
2023/12/24 10:21:08;;;;;;;0.40;0.40;;;;;;;9.53;81.61;95126.28;4983474;28;20215;-79
2023/12/24 10:23:33;;;;;;;0.37;0.30;;;;;;;9.75;80.56;95132.78;4979452;28;20565;-79
2023/12/24 10:26:03;;;;;;;2.27;0.40;;;;;;;9.83;80.92;95131.03;5004334;28;20211;-83
2023/12/24 10:28:28;;;;;;;0.30;0.30;;;;;;;9.99;79.65;95129.53;4988498;28;20186;-83
2023/12/24 10:31:07;;;;;;;1.00;0.30;;;;;;;9.73;80.85;95127.75;5000954;28;20298;-83
2023/12/24 10:33:34;;;;;;;1.13;0.33;;;;;;;9.96;79.60;95142.78;4993872;28;20194;-80
2023/12/24 10:35:59;;;;;;;0.47;0.47;;;;;;;9.84;80.25;95132.66;4996904;28;20208;-80
2023/12/24 10:38:26;;;;;;;0.50;0.50;;;;;;;9.89;80.58;95137.38;4978593;28;20270;-80
2023/12/24 10:40:52;;;;;;;0.50;0.50;;;;;;;9.93;80.17;95147.31;4980318;28;20183;-81
2023/12/24 10:43:18;;;;;;;0.30;0.30;;;;;;;9.66;81.35;95142.28;4994727;28;20889;-79
2023/12/24 10:45:43;;;;;;;0.40;0.30;;;;;;;9.89;80.53;95151.19;4965746;28;20252;-80
2023/12/24 10:48:08;;;;;;;0.20;0.20;;;;;;;9.98;80.13;95135.66;4997460;28;20196;-80
2023/12/24 10:50:34;;;;;;;0.40;0.40;;;;;;;9.88;80.36;95144.34;4977998;28;20190;-80
2023/12/24 10:52:59;;;;;;;0.40;0.40;;;;;;;9.97;81.06;95134.03;4988808;28;20196;-79
2023/12/24 10:55:26;;;;;;;0.47;0.47;;;;;;;9.96;80.95;95145.38;4996289;28;20244;-80
2023/12/24 10:58:16;;;;;;;0.60;0.60;;;;;;;10.05;80.97;95123.69;4973998;28;20581;-80
2023/12/24 11:00:42;;;;;;;0.40;0.40;;;;;;;10.11;80.76;95134.28;4988709;28;20179;-79
2023/12/24 11:03:08;;;;;;;0.40;0.40;;;;;;;10.20;80.52;95155.88;4974231;28;20190;-80
2023/12/24 11:05:46;;;;;;;0.67;0.67;;;;;;;10.17;80.61;95143.22;4967488;28;20220;-80
2023/12/24 11:08:21;;;;;;;0.40;0.40;;;;;;;10.00;80.95;95139.75;4993632;28;20195;-80
2023/12/24 11:11:03;;;;;;;0.77;0.67;;;;;;;10.31;80.65;95131.47;4993434;28;20191;-80
2023/12/24 11:13:31;;;;;;;0.50;0.40;;;;;;;10.14;81.13;95138.34;4985319;28;20187;-80
2023/12/24 11:16:04;;;;;;;0.30;0.30;;;;;;;10.58;79.50;95146.81;4989296;28;20207;-80
2023/12/24 11:18:48;;;;;;;1.40;0.70;;;;;;;10.06;81.77;95130.50;4973468;28;20184;-80
2023/12/24 11:21:19;;;;;;;0.40;0.40;;;;;;;9.90;82.92;95150.22;4997954;28;20191;-78
2023/12/24 11:24:14;;;;;;;0.53;0.40;;;;;;;10.28;81.11;95132.59;4977771;28;21820;-81
2023/12/24 11:26:54;;;;;;;0.30;0.30;;;;;;;9.98;81.53;95136.47;4992037;28;20215;-80
2023/12/24 11:29:47;;;;;;;0.40;0.40;;;;;;;9.97;81.43;95154.78;4996050;28;20195;-80
2023/12/24 11:32:25;;;;;;;0.30;0.30;;;;;;;10.20;80.96;95137.72;4993935;28;20655;-80
2023/12/24 11:34:52;;;;;;;0.30;0.30;;;;;;;10.18;80.81;95155.25;4995982;28;20191;-80
2023/12/24 11:37:26;;;;;;;1.13;0.30;;;;;;;10.02;81.08;95153.34;4978464;28;20210;-81